createdAt,value
2017-12-01T00:00:21.732Z,96.16
2017-12-01T00:02:49.369Z,96.07
2017-12-01T00:05:17.038Z,96.01
2017-12-01T00:07:44.684Z,95.96
2017-12-01T00:10:12.371Z,95.91
2017-12-01T00:12:40.021Z,95.82
2017-12-01T00:15:07.728Z,95.76
2017-12-01T00:17:35.360Z,96.21
2017-12-01T00:20:03.049Z,97.15
2017-12-01T00:22:30.743Z,97.89
2017-12-01T00:24:58.411Z,98.24
2017-12-01T00:27:26.081Z,98.56
2017-12-01T00:29:53.782Z,98.78
2017-12-01T00:32:21.433Z,98.86
2017-12-01T00:34:49.108Z,98.79
2017-12-01T00:37:16.777Z,98.52
2017-12-01T00:39:44.437Z,98.08
2017-12-01T00:42:12.076Z,98.18
2017-12-01T00:44:39.747Z,98.39
2017-12-01T00:47:07.375Z,98.57
2017-12-01T00:49:35.046Z,98.76
2017-12-01T00:52:02.689Z,98.89
2017-12-01T00:54:30.345Z,99.02
2017-12-01T00:56:58.008Z,99.00
2017-12-01T00:59:25.681Z,98.77
2017-12-01T01:01:53.349Z,98.45
2017-12-01T01:04:21.010Z,98.32
2017-12-01T01:06:48.645Z,98.18
2017-12-01T01:09:16.363Z,98.20
2017-12-01T01:11:44.008Z,98.28
2017-12-01T01:14:11.677Z,98.33
2017-12-01T01:16:39.368Z,98.37
2017-12-01T01:19:07.029Z,98.25
2017-12-01T01:21:34.734Z,97.94
2017-12-01T01:24:02.363Z,97.74
2017-12-01T01:26:30.040Z,97.88
2017-12-01T01:28:57.760Z,98.20
2017-12-01T01:31:25.405Z,98.60
2017-12-01T01:33:53.068Z,98.89
2017-12-01T01:36:20.719Z,99.09
2017-12-01T01:38:48.387Z,99.32
2017-12-01T01:41:16.083Z,99.44
2017-12-01T01:43:43.729Z,99.23
2017-12-01T01:46:11.420Z,99.13
2017-12-01T01:48:40.016Z,99.26
2017-12-01T01:51:07.635Z,99.35
2017-12-01T01:53:35.401Z,99.25
2017-12-01T01:56:03.047Z,99.12
2017-12-01T01:58:30.760Z,98.82
2017-12-01T02:00:58.483Z,98.48
2017-12-01T02:03:26.279Z,98.30
2017-12-01T02:05:53.865Z,98.11
2017-12-01T02:08:21.549Z,98.00
2017-12-01T02:10:49.163Z,97.97
2017-12-01T02:13:16.754Z,97.84
2017-12-01T02:15:44.350Z,97.69
2017-12-01T02:18:11.985Z,97.82
2017-12-01T02:20:39.582Z,98.05
2017-12-01T02:23:07.162Z,98.28
2017-12-01T02:25:34.779Z,98.48
2017-12-01T02:28:02.411Z,98.63
2017-12-01T02:30:29.987Z,98.72
2017-12-01T02:32:57.609Z,98.82
2017-12-01T02:35:25.197Z,98.82
2017-12-01T02:37:52.829Z,98.83
2017-12-01T02:40:20.487Z,98.86
2017-12-01T02:42:48.099Z,98.81
2017-12-01T02:45:15.930Z,98.88
2017-12-01T02:47:43.544Z,98.91
2017-12-01T02:50:11.270Z,99.00
2017-12-01T02:52:38.885Z,98.99
2017-12-01T02:55:06.467Z,98.83
2017-12-01T02:57:34.085Z,98.72
2017-12-01T03:00:01.884Z,98.56
2017-12-01T03:02:29.666Z,98.33
2017-12-01T03:04:57.402Z,98.03
2017-12-01T03:07:25.048Z,97.80
2017-12-01T03:09:52.640Z,97.55
2017-12-01T03:12:20.261Z,97.21
2017-12-01T03:14:47.841Z,97.22
2017-12-01T03:17:15.469Z,97.28
2017-12-01T03:19:43.063Z,97.57
2017-12-01T03:22:10.685Z,97.83
2017-12-01T03:24:38.281Z,98.13
2017-12-01T03:27:05.915Z,98.42
2017-12-01T03:29:33.497Z,98.52
2017-12-01T03:32:01.095Z,98.69
2017-12-01T03:34:28.731Z,98.71
2017-12-01T03:36:56.378Z,98.70
2017-12-01T03:39:23.969Z,98.61
2017-12-01T03:41:51.558Z,98.40
2017-12-01T03:44:19.182Z,98.22
2017-12-01T03:46:46.722Z,98.10
2017-12-01T03:49:14.356Z,97.93
2017-12-01T03:51:41.991Z,97.88
2017-12-01T03:54:09.569Z,97.70
2017-12-01T03:56:37.262Z,97.63
2017-12-01T03:59:04.894Z,97.54
2017-12-01T04:01:32.557Z,97.52
2017-12-01T04:04:00.179Z,97.49
2017-12-01T04:06:27.799Z,97.52
2017-12-01T04:08:55.387Z,97.54
2017-12-01T04:11:23.041Z,97.46
2017-12-01T04:13:50.625Z,97.36
2017-12-01T04:16:18.270Z,97.49
2017-12-01T04:18:45.895Z,97.79
2017-12-01T04:21:13.527Z,98.25
2017-12-01T04:23:41.118Z,98.64
2017-12-01T04:26:08.844Z,98.95
2017-12-01T04:28:36.430Z,99.26
2017-12-01T04:31:04.127Z,99.53
2017-12-01T04:33:31.701Z,99.58
2017-12-01T04:35:59.323Z,99.51
2017-12-01T04:38:26.962Z,99.44
2017-12-01T04:40:54.575Z,99.38
2017-12-01T04:43:22.158Z,99.12
2017-12-01T04:45:49.843Z,98.73
2017-12-01T04:48:17.426Z,98.57
2017-12-01T04:50:45.030Z,98.63
2017-12-01T04:53:12.677Z,98.78
2017-12-01T04:55:40.319Z,98.91
2017-12-01T04:58:07.903Z,98.91
2017-12-01T05:00:35.514Z,98.76
2017-12-01T05:03:03.167Z,98.57
2017-12-01T05:05:30.816Z,98.42
2017-12-01T05:07:58.399Z,98.34
2017-12-01T05:10:26.014Z,98.34
2017-12-01T05:12:53.694Z,98.32
2017-12-01T05:15:21.309Z,98.44
2017-12-01T05:17:48.907Z,98.51
2017-12-01T05:20:16.538Z,98.52
2017-12-01T05:22:44.120Z,98.52
2017-12-01T05:25:11.711Z,98.48
2017-12-01T05:27:39.334Z,98.35
2017-12-01T05:30:06.922Z,98.30
2017-12-01T05:32:34.535Z,98.36
2017-12-01T05:35:02.163Z,98.46
2017-12-01T05:37:29.743Z,98.60
2017-12-01T05:39:57.426Z,98.76
2017-12-01T05:42:25.050Z,98.71
2017-12-01T05:44:52.642Z,98.60
2017-12-01T05:47:20.267Z,98.34
2017-12-01T05:49:47.849Z,98.10
2017-12-01T05:52:15.547Z,98.10
2017-12-01T05:54:43.193Z,98.22
2017-12-01T05:57:10.878Z,98.26
2017-12-01T05:59:38.466Z,98.27
2017-12-01T06:02:06.077Z,98.03
2017-12-01T06:04:33.651Z,97.85
2017-12-01T06:07:01.314Z,97.69
2017-12-01T06:09:28.910Z,97.55
2017-12-01T06:11:56.560Z,97.51
2017-12-01T06:14:24.142Z,97.44
2017-12-01T06:16:51.752Z,97.55
2017-12-01T06:19:19.343Z,97.60
2017-12-01T06:21:46.971Z,97.75
2017-12-01T06:24:14.573Z,97.89
2017-12-01T06:26:42.207Z,97.99
2017-12-01T06:29:09.791Z,98.13
2017-12-01T06:31:37.440Z,98.21
2017-12-01T06:34:05.022Z,98.23
2017-12-01T06:36:32.653Z,98.17
2017-12-01T06:39:00.238Z,98.03
2017-12-01T06:41:27.955Z,97.87
2017-12-01T06:43:55.542Z,97.75
2017-12-01T06:46:23.151Z,98.01
2017-12-01T06:48:50.738Z,98.30
2017-12-01T06:51:18.354Z,98.53
2017-12-01T06:53:45.939Z,98.77
2017-12-01T06:56:13.612Z,98.99
2017-12-01T06:58:41.216Z,99.23
2017-12-01T07:01:08.870Z,99.34
2017-12-01T07:03:36.574Z,99.34
2017-12-01T07:06:04.236Z,99.28
2017-12-01T07:08:31.899Z,99.19
2017-12-01T07:10:59.486Z,99.09
2017-12-01T07:13:27.145Z,98.87
2017-12-01T07:15:54.738Z,98.63
2017-12-01T07:18:22.390Z,98.50
2017-12-01T07:20:50.019Z,98.12
2017-12-01T07:23:17.658Z,97.80
2017-12-01T07:25:45.304Z,97.85
2017-12-01T07:28:12.928Z,98.40
2017-12-01T07:30:40.519Z,98.87
2017-12-01T07:33:08.162Z,99.29
2017-12-01T07:35:35.765Z,99.73
2017-12-01T07:38:03.423Z,100.00
2017-12-01T07:40:31.028Z,100.00
2017-12-01T07:42:58.653Z,100.00
2017-12-01T07:45:42.063Z,100.00
2017-12-01T07:48:09.798Z,100.00
2017-12-01T07:50:37.386Z,100.00
2017-12-01T07:53:05.135Z,100.00
2017-12-01T07:55:32.741Z,99.80
2017-12-01T07:58:00.382Z,99.50
2017-12-01T08:00:27.974Z,99.17
2017-12-01T08:02:55.611Z,98.95
2017-12-01T08:05:23.251Z,98.54
2017-12-01T08:07:50.866Z,98.35
2017-12-01T08:10:18.468Z,98.34
2017-12-01T08:12:46.089Z,98.34
2017-12-01T08:15:13.682Z,98.28
2017-12-01T08:17:41.294Z,98.13
2017-12-01T08:20:08.915Z,98.03
2017-12-01T08:22:48.154Z,97.89
2017-12-01T08:25:39.967Z,97.83
2017-12-01T08:28:07.578Z,97.61
2017-12-01T08:30:35.183Z,97.36
2017-12-01T08:33:02.806Z,97.24
2017-12-01T08:35:30.511Z,97.19
2017-12-01T08:37:58.155Z,96.96
2017-12-01T08:40:25.728Z,96.51
2017-12-01T08:42:53.366Z,96.25
2017-12-01T08:45:21.002Z,96.42
2017-12-01T08:47:48.626Z,96.71
2017-12-01T08:50:16.226Z,96.82
2017-12-01T08:52:43.850Z,96.83
2017-12-01T08:55:11.451Z,96.54
2017-12-01T08:57:39.128Z,96.50
2017-12-01T09:00:06.702Z,95.94
2017-12-01T09:02:34.325Z,95.48
2017-12-01T09:05:01.950Z,95.31
2017-12-01T09:07:29.577Z,95.01
2017-12-01T09:09:57.178Z,95.25
2017-12-01T09:12:24.887Z,95.46
2017-12-01T09:14:52.467Z,95.60
2017-12-01T09:17:20.095Z,95.69
2017-12-01T09:19:47.794Z,95.59
2017-12-01T09:22:15.419Z,95.93
2017-12-01T09:24:43.030Z,96.22
2017-12-01T09:27:10.654Z,95.86
2017-12-01T09:29:38.265Z,96.33
2017-12-01T09:32:05.891Z,96.15
2017-12-01T09:34:33.558Z,95.77
2017-12-01T09:37:01.173Z,95.92
2017-12-01T09:39:28.790Z,96.24
2017-12-01T09:41:56.400Z,96.49
2017-12-01T09:44:24.011Z,96.63
2017-12-01T09:46:51.634Z,96.59
2017-12-01T09:49:19.229Z,95.85
2017-12-01T09:51:46.883Z,95.52
2017-12-01T09:54:14.480Z,94.12
2017-12-01T09:56:42.108Z,93.20
2017-12-01T09:59:09.746Z,92.51
2017-12-01T10:01:37.378Z,93.12
2017-12-01T10:04:04.977Z,92.64
2017-12-01T10:06:32.617Z,91.66
2017-12-01T10:09:00.206Z,91.28
2017-12-01T10:11:27.817Z,91.42
2017-12-01T10:13:55.438Z,91.77
2017-12-01T10:16:23.103Z,91.73
2017-12-01T10:18:50.748Z,89.75
2017-12-01T10:21:18.422Z,88.33
2017-12-01T10:23:46.009Z,86.31
2017-12-01T10:26:13.639Z,86.00
2017-12-01T10:28:41.217Z,85.82
2017-12-01T10:31:08.906Z,85.08
2017-12-01T10:33:36.501Z,84.93
2017-12-01T10:36:04.230Z,86.16
2017-12-01T10:38:31.844Z,87.26
2017-12-01T10:40:59.466Z,86.66
2017-12-01T10:43:27.145Z,86.48
2017-12-01T10:45:54.806Z,86.20
2017-12-01T10:48:22.422Z,86.24
2017-12-01T10:50:50.123Z,86.51
2017-12-01T10:53:17.740Z,87.53
2017-12-01T10:55:45.385Z,87.33
2017-12-01T10:58:13.007Z,88.74
2017-12-01T11:00:40.634Z,88.66
2017-12-01T11:03:08.227Z,89.34
2017-12-01T11:05:35.847Z,88.87
2017-12-01T11:08:03.443Z,88.49
2017-12-01T11:10:31.078Z,87.45
2017-12-01T11:12:58.714Z,87.21
2017-12-01T11:15:26.342Z,87.67
2017-12-01T11:17:54.146Z,87.52
2017-12-01T11:20:21.762Z,87.26
2017-12-01T11:22:49.515Z,86.92
2017-12-01T11:25:17.138Z,85.65
2017-12-01T11:27:44.739Z,85.70
2017-12-01T11:30:12.375Z,86.10
2017-12-01T11:32:39.988Z,84.92
2017-12-01T11:35:07.618Z,85.18
2017-12-01T11:37:35.234Z,84.89
2017-12-01T11:40:02.879Z,82.80
2017-12-01T11:42:30.567Z,78.94
2017-12-01T11:44:58.202Z,77.21
2017-12-01T11:47:25.784Z,75.82
2017-12-01T11:49:53.425Z,75.06
2017-12-01T11:52:21.023Z,75.77
2017-12-01T11:54:48.709Z,72.21
2017-12-01T11:57:16.315Z,70.80
2017-12-01T11:59:43.922Z,70.79
2017-12-01T12:02:11.532Z,71.22
2017-12-01T12:04:39.176Z,71.21
2017-12-01T12:07:06.760Z,71.50
2017-12-01T12:09:34.388Z,69.90
2017-12-01T12:12:02.046Z,69.40
2017-12-01T12:14:29.691Z,70.17
2017-12-01T12:16:57.346Z,71.22
2017-12-01T12:19:24.971Z,70.82
2017-12-01T12:21:52.620Z,68.82
2017-12-01T12:24:20.231Z,70.28
2017-12-01T12:26:47.830Z,70.66
2017-12-01T12:29:15.442Z,71.42
2017-12-01T12:31:43.055Z,71.74
2017-12-01T12:34:10.698Z,73.60
2017-12-01T12:36:38.290Z,74.28
2017-12-01T12:39:05.931Z,74.49
2017-12-01T12:41:33.514Z,74.54
2017-12-01T12:44:01.182Z,75.35
2017-12-01T12:46:28.762Z,75.12
2017-12-01T12:48:56.370Z,76.12
2017-12-01T12:51:24.040Z,76.09
2017-12-01T12:53:51.667Z,77.17
2017-12-01T12:56:19.262Z,78.84
2017-12-01T12:58:46.890Z,78.10
2017-12-01T13:01:14.463Z,78.33
2017-12-01T13:03:42.091Z,78.90
2017-12-01T13:06:09.695Z,79.46
2017-12-01T13:08:37.370Z,78.90
2017-12-01T13:11:04.958Z,77.69
2017-12-01T13:13:32.598Z,78.31
2017-12-01T13:16:00.188Z,79.42
2017-12-01T13:18:27.836Z,79.86
2017-12-01T13:20:55.417Z,79.69
2017-12-01T13:23:23.037Z,79.86
2017-12-01T13:25:50.689Z,79.30
2017-12-01T13:28:18.308Z,79.52
2017-12-01T13:30:45.897Z,79.63
2017-12-01T13:33:13.506Z,78.97
2017-12-01T13:35:41.101Z,79.11
2017-12-01T13:38:08.755Z,79.18
2017-12-01T13:40:36.430Z,79.04
2017-12-01T13:43:04.038Z,79.77
2017-12-01T13:45:31.681Z,80.20
2017-12-01T13:47:59.310Z,81.08
2017-12-01T13:50:26.895Z,81.30
2017-12-01T13:52:54.520Z,81.24
2017-12-01T13:55:22.109Z,80.58
2017-12-01T13:57:49.795Z,80.71
2017-12-01T14:00:17.382Z,83.55
2017-12-01T14:02:45.009Z,84.82
2017-12-01T14:05:12.612Z,85.54
2017-12-01T14:07:40.347Z,85.81
2017-12-01T14:10:07.972Z,86.01
2017-12-01T14:12:35.584Z,85.63
2017-12-01T14:15:03.245Z,85.72
2017-12-01T14:17:30.873Z,84.74
2017-12-01T14:19:58.472Z,83.03
2017-12-01T14:22:26.098Z,83.18
2017-12-01T14:24:53.690Z,82.49
2017-12-01T14:27:21.322Z,82.55
2017-12-01T14:29:50.438Z,82.61
2017-12-01T14:32:18.087Z,81.51
2017-12-01T14:34:45.728Z,80.62
2017-12-01T14:37:13.332Z,80.67
2017-12-01T14:39:40.957Z,80.37
2017-12-01T14:42:08.555Z,79.59
2017-12-01T14:44:36.190Z,78.52
2017-12-01T14:47:03.816Z,78.65
2017-12-01T14:49:31.451Z,78.98
2017-12-01T14:51:59.072Z,77.98
2017-12-01T14:54:26.699Z,78.70
2017-12-01T14:56:54.290Z,79.70
2017-12-01T14:59:21.951Z,79.95
2017-12-01T15:01:49.570Z,80.92
2017-12-01T15:04:17.165Z,81.98
2017-12-01T15:06:44.830Z,80.02
2017-12-01T15:09:12.415Z,80.19
2017-12-01T15:11:40.049Z,80.23
2017-12-01T15:14:07.667Z,80.26
2017-12-01T15:16:35.314Z,79.25
2017-12-01T15:19:02.976Z,80.08
2017-12-01T15:21:30.620Z,80.87
2017-12-01T15:23:58.251Z,81.40
2017-12-01T15:26:25.882Z,82.54
2017-12-01T15:28:53.494Z,83.44
2017-12-01T15:31:21.140Z,84.04
2017-12-01T15:33:48.735Z,84.67
2017-12-01T15:36:16.366Z,84.97
2017-12-01T15:38:43.966Z,85.16
2017-12-01T15:41:11.595Z,85.25
2017-12-01T15:43:39.206Z,85.54
2017-12-01T15:46:06.917Z,85.62
2017-12-01T15:48:34.513Z,85.84
2017-12-01T15:51:02.145Z,85.68
2017-12-01T15:53:29.734Z,85.33
2017-12-01T15:55:57.446Z,85.30
2017-12-01T15:58:25.108Z,85.19
2017-12-01T16:00:52.715Z,84.95
2017-12-01T16:03:20.334Z,85.26
2017-12-01T16:05:47.914Z,85.14
2017-12-01T16:08:15.548Z,84.31
2017-12-01T16:10:43.196Z,83.92
2017-12-01T16:13:10.836Z,83.93
2017-12-01T16:15:38.425Z,83.77
2017-12-01T16:18:06.051Z,83.25
2017-12-01T16:20:33.642Z,82.76
2017-12-01T16:23:01.419Z,83.21
2017-12-01T16:25:29.015Z,82.93
2017-12-01T16:27:56.638Z,82.83
2017-12-01T16:30:24.222Z,83.37
2017-12-01T16:32:51.846Z,83.62
2017-12-01T16:35:19.496Z,83.69
2017-12-01T16:37:47.115Z,83.37
2017-12-01T16:40:14.731Z,83.78
2017-12-01T16:42:42.364Z,83.77
2017-12-01T16:45:09.939Z,83.29
2017-12-01T16:47:37.564Z,82.41
2017-12-01T16:50:05.268Z,82.07
2017-12-01T16:52:32.946Z,82.66
2017-12-01T16:55:00.554Z,82.25
2017-12-01T16:57:28.214Z,82.35
2017-12-01T16:59:55.830Z,82.53
2017-12-01T17:02:23.446Z,82.40
2017-12-01T17:04:51.045Z,82.13
2017-12-01T17:07:18.736Z,82.10
2017-12-01T17:09:46.335Z,82.10
2017-12-01T17:12:13.954Z,81.95
2017-12-01T17:14:41.555Z,82.04
2017-12-01T17:17:09.143Z,82.09
2017-12-01T17:19:36.776Z,82.02
2017-12-01T17:22:04.436Z,81.90
2017-12-01T17:24:32.051Z,82.16
2017-12-01T17:26:59.661Z,81.86
2017-12-01T17:29:27.292Z,82.11
2017-12-01T17:31:54.899Z,82.24
2017-12-01T17:34:22.507Z,82.67
2017-12-01T17:36:50.099Z,82.58
2017-12-01T17:39:17.715Z,82.51
2017-12-01T17:41:45.334Z,82.26
2017-12-01T17:44:12.997Z,81.63
2017-12-01T17:46:40.596Z,81.67
2017-12-01T17:49:08.218Z,82.07
2017-12-01T17:51:35.839Z,82.18
2017-12-01T17:54:03.488Z,82.15
2017-12-01T17:56:31.136Z,82.53
2017-12-01T17:58:58.735Z,82.65
2017-12-01T18:01:26.343Z,82.68
2017-12-01T18:03:53.970Z,82.69
2017-12-01T18:06:21.569Z,82.45
2017-12-01T18:08:49.201Z,82.44
2017-12-01T18:11:16.803Z,82.53
2017-12-01T18:13:44.418Z,82.95
2017-12-01T18:16:12.026Z,82.75
2017-12-01T18:18:39.634Z,82.97
2017-12-01T18:21:07.232Z,82.92
2017-12-01T18:23:34.892Z,82.72
2017-12-01T18:26:02.479Z,82.48
2017-12-01T18:28:30.132Z,82.34
2017-12-01T18:30:57.714Z,82.46
2017-12-01T18:33:25.340Z,82.51
2017-12-01T18:35:52.963Z,82.25
2017-12-01T18:38:20.602Z,82.33
2017-12-01T18:40:48.201Z,82.91
2017-12-01T18:43:15.840Z,82.87
2017-12-01T18:45:43.431Z,82.82
2017-12-01T18:48:11.088Z,82.91
2017-12-01T18:50:38.711Z,82.82
2017-12-01T18:53:06.356Z,82.80
2017-12-01T18:55:33.959Z,82.76
2017-12-01T18:58:01.585Z,82.76
2017-12-01T19:00:29.203Z,82.76
2017-12-01T19:02:56.827Z,82.93
2017-12-01T19:05:24.424Z,82.92
2017-12-01T19:07:52.058Z,83.67
2017-12-01T19:10:19.666Z,84.33
2017-12-01T19:12:47.288Z,84.67
2017-12-01T19:15:14.868Z,84.48
2017-12-01T19:17:42.519Z,84.19
2017-12-01T19:20:10.123Z,84.18
2017-12-01T19:22:37.721Z,84.28
2017-12-01T19:25:05.332Z,84.44
2017-12-01T19:27:33.224Z,84.46
2017-12-01T19:30:00.808Z,84.36
2017-12-01T19:32:28.403Z,84.25
2017-12-01T19:34:56.073Z,84.13
2017-12-01T19:37:23.691Z,84.18
2017-12-01T19:39:51.264Z,84.37
2017-12-01T19:42:18.899Z,84.48
2017-12-01T19:44:46.504Z,84.60
2017-12-01T19:47:14.135Z,84.61
2017-12-01T19:49:41.749Z,84.60
2017-12-01T19:52:09.464Z,84.67
2017-12-01T19:54:37.115Z,84.96
2017-12-01T19:57:04.846Z,85.10
2017-12-01T19:59:32.465Z,85.34
2017-12-01T20:02:00.106Z,85.51
2017-12-01T20:04:27.738Z,85.47
2017-12-01T20:06:55.336Z,85.41
2017-12-01T20:09:22.978Z,85.59
2017-12-01T20:11:50.599Z,85.64
2017-12-01T20:14:18.238Z,85.36
2017-12-01T20:16:45.834Z,85.40
2017-12-01T20:19:13.595Z,85.30
2017-12-01T20:21:41.182Z,85.26
2017-12-01T20:24:08.871Z,85.24
2017-12-01T20:26:36.474Z,85.16
2017-12-01T20:29:04.134Z,85.05
2017-12-01T20:31:31.714Z,85.04
2017-12-01T20:33:59.369Z,85.35
2017-12-01T20:36:26.963Z,85.72
2017-12-01T20:38:54.658Z,86.00
2017-12-01T20:41:22.275Z,86.13
2017-12-01T20:43:49.910Z,86.21
2017-12-01T20:46:17.508Z,86.23
2017-12-01T20:48:45.112Z,86.17
2017-12-01T20:51:12.707Z,86.15
2017-12-01T20:53:40.399Z,86.23
2017-12-01T20:56:08.045Z,86.42
2017-12-01T20:58:35.686Z,86.42
2017-12-01T21:01:03.299Z,86.33
2017-12-01T21:03:30.929Z,86.22
2017-12-01T21:05:58.531Z,86.42
2017-12-01T21:08:26.188Z,86.70
2017-12-01T21:10:53.835Z,86.67
2017-12-01T21:13:21.542Z,86.74
2017-12-01T21:15:49.150Z,86.75
2017-12-01T21:18:16.838Z,87.01
2017-12-01T21:20:44.421Z,87.39
2017-12-01T21:23:12.040Z,87.92
2017-12-01T21:25:39.630Z,87.71
2017-12-01T21:28:07.278Z,87.44
2017-12-01T21:30:34.911Z,87.22
2017-12-01T21:33:02.622Z,87.17
2017-12-01T21:35:30.238Z,87.13
2017-12-01T21:37:57.868Z,86.94
2017-12-01T21:40:25.520Z,86.59
2017-12-01T21:42:53.260Z,86.35
2017-12-01T21:45:20.888Z,86.31
2017-12-01T21:47:48.584Z,86.64
2017-12-01T21:50:16.206Z,87.10
2017-12-01T21:52:43.813Z,87.21
2017-12-01T21:55:11.500Z,87.15
2017-12-01T21:57:39.106Z,86.63
2017-12-01T22:00:06.805Z,86.67
2017-12-01T22:02:34.421Z,86.64
2017-12-01T22:05:02.092Z,86.73
2017-12-01T22:07:29.756Z,86.96
2017-12-01T22:09:57.414Z,87.27
2017-12-01T22:12:25.191Z,87.93
2017-12-01T22:14:52.883Z,88.16
2017-12-01T22:17:20.482Z,88.25
2017-12-01T22:19:48.083Z,88.25
2017-12-01T22:22:15.761Z,88.85
2017-12-01T22:24:43.432Z,89.35
2017-12-01T22:27:11.143Z,89.78
2017-12-01T22:29:38.740Z,90.11
2017-12-01T22:32:06.464Z,90.17
2017-12-01T22:34:34.070Z,90.23
2017-12-01T22:37:01.762Z,90.35
2017-12-01T22:39:29.396Z,90.15
2017-12-01T22:41:57.037Z,90.14
2017-12-01T22:44:24.625Z,90.22
2017-12-01T22:46:52.254Z,90.08
2017-12-01T22:49:19.874Z,89.99
2017-12-01T22:51:47.514Z,89.92
2017-12-01T22:54:15.129Z,89.67
2017-12-01T22:56:42.771Z,89.59
2017-12-01T22:59:10.441Z,89.60
2017-12-01T23:01:38.083Z,89.80
2017-12-01T23:04:05.744Z,89.74
2017-12-01T23:06:33.409Z,89.66
2017-12-01T23:09:01.878Z,89.51
2017-12-01T23:11:29.480Z,89.86
2017-12-01T23:13:57.157Z,90.76
2017-12-01T23:16:24.788Z,91.75
2017-12-01T23:18:52.432Z,92.48
2017-12-01T23:21:20.048Z,93.16
2017-12-01T23:23:47.730Z,93.52
2017-12-01T23:26:15.360Z,93.76
2017-12-01T23:28:43.020Z,93.48
2017-12-01T23:31:10.611Z,92.86
2017-12-01T23:33:38.358Z,92.23
2017-12-01T23:36:05.978Z,91.78
2017-12-01T23:38:33.593Z,91.30
2017-12-01T23:41:01.238Z,90.99
2017-12-01T23:43:28.832Z,90.68
2017-12-01T23:45:56.511Z,90.38
2017-12-01T23:48:24.130Z,90.06
2017-12-01T23:50:51.884Z,89.85
2017-12-01T23:53:19.504Z,90.00
2017-12-01T23:55:47.131Z,90.32
2017-12-01T23:58:14.739Z,90.63
